createdAt,value
2019-03-08T00:00:00.982Z,1.60
2019-03-08T00:02:30.182Z,1.60
2019-03-08T00:04:58.449Z,1.10
2019-03-08T00:07:26.725Z,1.20
2019-03-08T00:09:55.181Z,1.30
2019-03-08T00:12:23.470Z,1.33
2019-03-08T00:14:54.046Z,1.20
2019-03-08T00:17:22.325Z,1.27
2019-03-08T00:19:50.594Z,1.50
2019-03-08T00:22:18.886Z,1.00
2019-03-08T00:24:47.269Z,1.03
2019-03-08T00:27:15.533Z,1.13
2019-03-08T00:29:43.798Z,1.50
2019-03-08T00:32:12.152Z,1.30
2019-03-08T00:34:40.512Z,1.23
2019-03-08T00:37:09.179Z,1.27
2019-03-08T00:39:37.667Z,1.27
2019-03-08T00:42:06.929Z,1.50
2019-03-08T00:44:35.195Z,1.10
2019-03-08T00:47:03.875Z,1.30
2019-03-08T00:49:32.133Z,1.53
2019-03-08T00:52:00.466Z,1.50
2019-03-08T00:54:28.771Z,1.50
2019-03-08T00:56:57.053Z,1.20
2019-03-08T00:59:25.572Z,0.90
2019-03-08T01:01:55.046Z,1.50
2019-03-08T01:04:23.301Z,1.13
2019-03-08T01:06:51.592Z,1.27
2019-03-08T01:09:20.059Z,1.17
2019-03-08T01:11:48.318Z,1.50
2019-03-08T01:14:16.670Z,1.13
2019-03-08T01:16:44.930Z,1.20
2019-03-08T01:19:13.213Z,1.00
2019-03-08T01:21:42.488Z,1.00
2019-03-08T01:24:10.968Z,1.20
2019-03-08T01:26:39.229Z,1.10
2019-03-08T01:29:07.510Z,1.17
2019-03-08T01:31:35.775Z,1.20
2019-03-08T01:34:04.060Z,0.93
2019-03-08T01:36:32.321Z,1.17
2019-03-08T01:39:00.710Z,0.90
2019-03-08T01:41:30.033Z,1.50
2019-03-08T01:43:58.322Z,1.30
2019-03-08T01:46:26.590Z,1.10
2019-03-08T01:48:55.138Z,1.17
2019-03-08T01:51:23.718Z,1.10
2019-03-08T01:53:52.199Z,0.90
2019-03-08T01:56:20.457Z,1.00
2019-03-08T01:58:49.306Z,1.00
2019-03-08T02:01:17.567Z,1.17
2019-03-08T02:03:45.913Z,1.07
2019-03-08T02:06:14.177Z,0.90
2019-03-08T02:08:42.773Z,0.93
2019-03-08T02:11:11.030Z,1.10
2019-03-08T02:13:39.313Z,1.00
2019-03-08T02:16:07.573Z,1.27
2019-03-08T02:18:35.858Z,0.80
2019-03-08T02:21:07.082Z,1.07
2019-03-08T02:23:34.053Z,0.80
2019-03-08T02:26:02.319Z,1.10
2019-03-08T02:28:30.612Z,1.00
2019-03-08T02:30:59.889Z,0.73
2019-03-08T02:33:29.714Z,0.80
2019-03-08T02:35:58.294Z,1.20
2019-03-08T02:38:26.874Z,0.70
2019-03-08T02:40:56.772Z,0.70
2019-03-08T02:43:25.049Z,0.80
2019-03-08T02:45:54.522Z,0.80
2019-03-08T02:48:22.804Z,0.67
2019-03-08T02:50:51.067Z,0.73
2019-03-08T02:53:19.354Z,0.73
2019-03-08T02:55:47.614Z,0.70
2019-03-08T02:58:15.906Z,0.97
2019-03-08T03:00:44.438Z,0.60
2019-03-08T03:03:12.766Z,0.80
2019-03-08T03:05:41.918Z,0.70
2019-03-08T03:08:10.186Z,0.70
2019-03-08T03:10:38.468Z,0.83
2019-03-08T03:13:07.806Z,0.70
2019-03-08T03:15:36.196Z,0.60
2019-03-08T03:18:04.461Z,0.80
2019-03-08T03:20:32.744Z,0.80
2019-03-08T03:23:01.004Z,0.80
2019-03-08T03:25:29.285Z,0.60
2019-03-08T03:27:57.542Z,0.80
2019-03-08T03:30:26.640Z,0.60
2019-03-08T03:32:57.179Z,0.63
2019-03-08T03:35:25.449Z,0.80
2019-03-08T03:37:53.784Z,0.70
2019-03-08T03:40:22.135Z,0.67
2019-03-08T03:42:50.404Z,0.80
2019-03-08T03:45:21.697Z,0.70
2019-03-08T03:47:50.015Z,0.90
2019-03-08T03:50:18.733Z,0.80
2019-03-08T03:52:47.097Z,0.70
2019-03-08T03:55:15.953Z,0.70
2019-03-08T03:57:44.223Z,0.70
2019-03-08T04:00:21.777Z,0.90
2019-03-08T04:02:50.042Z,0.70
2019-03-08T04:05:19.420Z,0.70
2019-03-08T04:07:47.844Z,0.80
2019-03-08T04:10:16.505Z,0.80
2019-03-08T04:12:44.837Z,0.70
2019-03-08T04:15:14.668Z,0.70
2019-03-08T04:17:42.917Z,0.87
2019-03-08T04:20:12.270Z,0.70
2019-03-08T04:22:40.530Z,1.00
2019-03-08T04:25:09.281Z,1.00
2019-03-08T04:27:37.550Z,0.90
2019-03-08T04:30:07.366Z,0.87
2019-03-08T04:32:35.837Z,1.10
2019-03-08T04:35:04.496Z,1.00
2019-03-08T04:37:32.768Z,0.93
2019-03-08T04:40:01.041Z,0.93
2019-03-08T04:42:29.297Z,0.70
2019-03-08T04:44:57.581Z,0.80
2019-03-08T04:47:25.860Z,0.90
2019-03-08T04:49:55.858Z,1.00
2019-03-08T04:52:24.094Z,1.20
2019-03-08T04:54:52.383Z,0.80
2019-03-08T04:57:20.654Z,0.80
2019-03-08T04:59:49.135Z,0.80
2019-03-08T05:02:17.505Z,0.70
2019-03-08T05:04:45.769Z,0.67
2019-03-08T05:07:14.053Z,0.70
2019-03-08T05:09:42.313Z,0.60
2019-03-08T05:12:10.598Z,0.60
2019-03-08T05:14:38.857Z,0.80
2019-03-08T05:17:07.143Z,0.80
2019-03-08T05:19:35.649Z,0.73
2019-03-08T05:22:03.938Z,0.97
2019-03-08T05:24:32.450Z,0.70
2019-03-08T05:27:01.307Z,0.70
2019-03-08T05:29:31.598Z,0.90
2019-03-08T05:31:59.886Z,0.70
2019-03-08T05:34:28.145Z,0.60
2019-03-08T05:36:56.438Z,0.67
2019-03-08T05:39:24.693Z,0.70
2019-03-08T05:41:52.982Z,0.83
2019-03-08T05:44:21.498Z,0.70
2019-03-08T05:46:49.782Z,0.80
2019-03-08T05:49:18.137Z,0.90
2019-03-08T05:51:46.430Z,1.20
2019-03-08T05:54:14.689Z,1.00
2019-03-08T05:56:44.450Z,0.70
2019-03-08T05:59:12.958Z,1.07
2019-03-08T06:01:41.509Z,0.90
2019-03-08T06:04:10.082Z,0.70
2019-03-08T06:06:38.365Z,0.90
2019-03-08T06:09:07.089Z,0.80
2019-03-08T06:11:35.373Z,0.80
2019-03-08T06:14:05.342Z,0.80
2019-03-08T06:16:33.874Z,0.90
2019-03-08T06:19:02.054Z,0.80
2019-03-08T06:21:30.346Z,0.90
2019-03-08T06:23:58.618Z,0.80
2019-03-08T06:26:27.361Z,0.70
2019-03-08T06:28:55.873Z,0.97
2019-03-08T06:31:25.173Z,0.90
2019-03-08T06:33:53.433Z,1.00
2019-03-08T06:36:21.721Z,0.90
2019-03-08T06:38:49.998Z,0.90
2019-03-08T06:41:18.281Z,1.00
2019-03-08T06:43:46.579Z,0.90
2019-03-08T06:46:14.842Z,1.40
2019-03-08T06:48:43.106Z,0.90
2019-03-08T06:51:11.574Z,1.10
2019-03-08T06:53:39.854Z,1.07
2019-03-08T06:56:08.117Z,1.40
2019-03-08T06:58:43.985Z,1.23
2019-03-08T07:01:13.412Z,1.20
2019-03-08T07:03:41.698Z,1.00
2019-03-08T07:06:09.974Z,1.00
2019-03-08T07:08:38.258Z,1.20
2019-03-08T07:11:06.518Z,1.10
2019-03-08T07:13:34.806Z,1.17
2019-03-08T07:16:12.480Z,1.07
2019-03-08T07:18:33.006Z,1.00
2019-03-08T07:21:06.118Z,0.93
2019-03-08T07:23:36.049Z,1.03
2019-03-08T07:26:21.169Z,1.17
2019-03-08T07:28:51.092Z,0.70
2019-03-08T07:31:29.986Z,1.13
2019-03-08T07:34:15.021Z,0.70
2019-03-08T07:37:01.210Z,0.80
2019-03-08T07:39:40.129Z,0.70
2019-03-08T07:42:12.978Z,1.00
2019-03-08T07:44:59.198Z,1.00
2019-03-08T07:47:37.830Z,0.80
2019-03-08T07:50:09.280Z,1.07
2019-03-08T07:52:44.893Z,1.00
2019-03-08T07:55:17.813Z,0.90
2019-03-08T07:57:47.729Z,0.90
2019-03-08T08:00:17.897Z,0.93
2019-03-08T08:02:47.793Z,1.17
2019-03-08T08:05:29.530Z,1.10
2019-03-08T08:07:59.449Z,0.90
2019-03-08T08:10:29.348Z,1.03
2019-03-08T08:13:05.155Z,0.80
2019-03-08T08:15:47.020Z,1.00
2019-03-08T08:18:28.934Z,0.90
2019-03-08T08:20:58.864Z,1.00
2019-03-08T08:23:35.019Z,0.90
2019-03-08T08:26:03.058Z,1.00
2019-03-08T08:28:49.674Z,1.20
2019-03-08T08:31:28.317Z,0.77
2019-03-08T08:34:14.376Z,0.83
2019-03-08T08:36:53.186Z,1.00
2019-03-08T08:39:40.999Z,1.40
2019-03-08T08:42:13.643Z,1.27
2019-03-08T08:44:43.816Z,1.37
2019-03-08T08:47:31.743Z,1.43
2019-03-08T08:50:01.662Z,1.00
2019-03-08T08:52:31.558Z,1.00
2019-03-08T08:55:01.486Z,1.20
2019-03-08T08:57:43.098Z,0.90
2019-03-08T09:00:14.891Z,1.20
2019-03-08T09:03:00.575Z,1.30
2019-03-08T09:05:33.270Z,1.13
2019-03-08T09:08:14.957Z,1.27
2019-03-08T09:10:50.785Z,1.50
2019-03-08T09:13:33.135Z,1.23
2019-03-08T09:16:12.013Z,1.20
2019-03-08T09:18:58.660Z,1.47
2019-03-08T09:21:28.586Z,1.40
2019-03-08T09:23:58.481Z,1.70
2019-03-08T09:26:28.397Z,1.50
2019-03-08T09:29:07.600Z,1.20
2019-03-08T09:31:55.641Z,1.20
2019-03-08T09:34:37.590Z,1.30
2019-03-08T09:37:25.663Z,1.20
2019-03-08T09:39:55.582Z,7.87
2019-03-08T09:42:41.989Z,1.00
2019-03-08T09:45:23.767Z,1.87
2019-03-08T09:47:53.689Z,1.20
2019-03-08T09:50:26.082Z,1.80
2019-03-08T09:52:56.022Z,1.30
2019-03-08T09:55:31.669Z,1.83
2019-03-08T09:58:01.598Z,7.27
2019-03-08T10:00:37.550Z,13.17
2019-03-08T10:03:25.772Z,1.80
2019-03-08T10:06:04.549Z,1.10
2019-03-08T10:08:37.346Z,1.77
2019-03-08T10:11:25.091Z,1.20
2019-03-08T10:14:00.556Z,1.17
2019-03-08T10:16:36.369Z,1.20
2019-03-08T10:19:12.039Z,1.43
2019-03-08T10:21:53.998Z,1.10
2019-03-08T10:24:32.998Z,1.23
2019-03-08T10:27:02.901Z,1.23
2019-03-08T10:29:33.025Z,1.20
2019-03-08T10:32:02.921Z,1.30
2019-03-08T10:34:49.238Z,1.10
2019-03-08T10:37:27.610Z,1.07
2019-03-08T10:40:06.221Z,0.93
2019-03-08T10:42:48.313Z,1.37
2019-03-08T10:45:21.390Z,1.10
2019-03-08T10:47:57.537Z,1.27
2019-03-08T10:50:43.897Z,1.43
2019-03-08T10:53:25.597Z,1.00
2019-03-08T10:55:55.530Z,1.00
2019-03-08T10:58:25.427Z,1.67
2019-03-08T11:00:58.238Z,0.80
2019-03-08T11:03:34.009Z,1.37
2019-03-08T11:06:18.777Z,1.13
2019-03-08T11:09:00.481Z,1.23
2019-03-08T11:11:46.449Z,1.40
2019-03-08T11:14:25.048Z,1.20
2019-03-08T11:17:12.820Z,1.60
2019-03-08T11:19:42.709Z,1.20
2019-03-08T11:22:18.645Z,1.10
2019-03-08T11:24:48.540Z,1.47
2019-03-08T11:27:21.490Z,1.10
2019-03-08T11:30:07.637Z,1.47
2019-03-08T11:32:37.568Z,1.30
2019-03-08T11:35:14.790Z,1.10
2019-03-08T11:37:53.725Z,1.20
2019-03-08T11:40:38.817Z,1.00
2019-03-08T11:43:08.748Z,1.27
2019-03-08T11:45:38.650Z,1.37
2019-03-08T11:48:08.569Z,1.60
2019-03-08T11:50:38.674Z,1.07
2019-03-08T11:53:24.743Z,1.20
2019-03-08T11:56:00.605Z,1.40
2019-03-08T11:58:30.527Z,1.00
2019-03-08T12:01:06.498Z,1.30
2019-03-08T12:03:36.386Z,1.27
2019-03-08T12:06:15.278Z,1.10
2019-03-08T12:08:50.964Z,1.00
2019-03-08T12:11:26.578Z,1.33
2019-03-08T12:14:14.473Z,1.20
2019-03-08T12:16:50.246Z,1.80
2019-03-08T12:19:36.642Z,1.90
2019-03-08T12:22:12.393Z,1.40
2019-03-08T12:24:57.198Z,2.30
2019-03-08T12:27:35.910Z,3.40
2019-03-08T12:30:16.727Z,3.53
2019-03-08T12:32:52.523Z,7.37
2019-03-08T12:35:38.822Z,1.97
2019-03-08T12:38:20.854Z,6.17
2019-03-08T12:41:07.301Z,2.00
2019-03-08T12:43:49.185Z,1.40
2019-03-08T12:46:24.813Z,1.17
2019-03-08T12:49:03.550Z,1.53
2019-03-08T12:51:45.545Z,1.20
2019-03-08T12:54:31.599Z,1.27
2019-03-08T12:57:04.397Z,1.10
2019-03-08T12:59:34.329Z,1.33
2019-03-08T13:02:13.297Z,1.70
2019-03-08T13:04:45.969Z,1.50
2019-03-08T13:07:28.690Z,1.60
2019-03-08T13:09:58.610Z,2.03
2019-03-08T13:12:26.875Z,1.20
2019-03-08T13:14:55.163Z,1.40
2019-03-08T13:17:23.429Z,1.40
2019-03-08T13:19:51.707Z,1.43
2019-03-08T13:22:19.995Z,2.00
2019-03-08T13:24:48.262Z,1.70
2019-03-08T13:27:16.537Z,1.93
2019-03-08T13:29:44.802Z,1.80
2019-03-08T13:32:13.194Z,1.40
2019-03-08T13:34:41.452Z,1.30
2019-03-08T13:37:09.734Z,1.27
2019-03-08T13:39:37.995Z,1.80
2019-03-08T13:42:06.277Z,1.40
2019-03-08T13:44:34.543Z,1.47
2019-03-08T13:47:02.926Z,1.37
2019-03-08T13:49:31.378Z,1.20
2019-03-08T13:51:59.684Z,1.53
2019-03-08T13:54:31.385Z,1.30
2019-03-08T13:56:59.754Z,1.60
2019-03-08T13:59:28.018Z,1.57
2019-03-08T14:01:56.405Z,1.30
2019-03-08T14:04:24.690Z,1.00
2019-03-08T14:06:52.969Z,1.80
2019-03-08T14:09:21.239Z,1.67
2019-03-08T14:11:49.521Z,1.33
2019-03-08T14:14:17.786Z,1.43
2019-03-08T14:16:46.274Z,1.67
2019-03-08T14:19:14.531Z,1.33
2019-03-08T14:21:42.821Z,1.73
2019-03-08T14:24:11.076Z,1.60
2019-03-08T14:26:39.365Z,1.50
2019-03-08T14:29:07.634Z,1.27
2019-03-08T14:31:37.854Z,1.50
2019-03-08T14:34:06.124Z,1.83
2019-03-08T14:36:34.405Z,1.53
2019-03-08T14:39:07.526Z,1.60
2019-03-08T14:41:35.873Z,1.43
2019-03-08T14:44:11.674Z,1.50
2019-03-08T14:46:41.597Z,1.70
2019-03-08T14:49:09.857Z,1.70
2019-03-08T14:51:38.118Z,1.60
2019-03-08T14:54:09.920Z,1.77
2019-03-08T14:56:37.475Z,1.70
2019-03-08T14:59:05.870Z,1.50
2019-03-08T15:01:34.135Z,1.77
2019-03-08T15:04:02.414Z,1.50
2019-03-08T15:06:30.678Z,2.00
2019-03-08T15:08:58.963Z,1.90
2019-03-08T15:11:27.421Z,1.90
2019-03-08T15:13:57.878Z,2.13
2019-03-08T15:16:25.609Z,1.67
2019-03-08T15:18:53.889Z,2.00
2019-03-08T15:21:22.158Z,2.00
2019-03-08T15:23:50.881Z,1.80
2019-03-08T15:26:20.349Z,1.60
2019-03-08T15:28:48.635Z,1.70
2019-03-08T15:31:16.902Z,2.10
2019-03-08T15:33:45.183Z,1.70
2019-03-08T15:36:13.505Z,1.97
2019-03-08T15:38:42.071Z,1.93
2019-03-08T15:41:10.347Z,2.50
2019-03-08T15:43:38.622Z,1.60
2019-03-08T15:46:07.828Z,1.70
2019-03-08T15:48:36.688Z,1.37
2019-03-08T15:51:05.010Z,2.07
2019-03-08T15:53:33.306Z,1.10
2019-03-08T15:56:01.581Z,1.43
2019-03-08T15:58:29.893Z,2.43
2019-03-08T16:00:58.165Z,1.50
2019-03-08T16:03:30.097Z,1.80
2019-03-08T16:05:56.365Z,1.27
2019-03-08T16:08:24.649Z,1.87
2019-03-08T16:10:52.910Z,1.20
2019-03-08T16:13:21.201Z,1.47
2019-03-08T16:15:49.461Z,1.20
2019-03-08T16:18:18.318Z,1.53
2019-03-08T16:20:49.450Z,1.60
2019-03-08T16:23:17.984Z,1.50
2019-03-08T16:25:47.943Z,1.23
2019-03-08T16:28:16.287Z,1.30
2019-03-08T16:30:51.761Z,1.40
2019-03-08T16:33:38.877Z,1.57
2019-03-08T16:36:14.609Z,1.57
2019-03-08T16:38:50.106Z,1.73
2019-03-08T16:41:31.915Z,1.27
2019-03-08T16:44:10.553Z,1.80
2019-03-08T16:46:56.699Z,1.80
2019-03-08T16:49:42.933Z,1.33
2019-03-08T16:52:29.189Z,1.37
2019-03-08T16:55:08.110Z,1.43
2019-03-08T16:57:38.013Z,1.80
2019-03-08T17:00:23.797Z,1.37
2019-03-08T17:02:59.690Z,2.03
2019-03-08T17:05:41.818Z,1.73
2019-03-08T17:08:17.778Z,1.60
2019-03-08T17:11:04.021Z,1.50
2019-03-08T17:13:34.033Z,1.60
2019-03-08T17:16:15.798Z,1.77
2019-03-08T17:18:45.707Z,1.23
2019-03-08T17:21:15.621Z,1.90
2019-03-08T17:23:48.025Z,1.40
2019-03-08T17:26:27.119Z,1.57
2019-03-08T17:29:02.797Z,1.30
2019-03-08T17:31:44.938Z,1.57
2019-03-08T17:34:31.274Z,1.60
2019-03-08T17:37:03.921Z,1.50
2019-03-08T17:39:36.580Z,1.30
2019-03-08T17:42:09.529Z,1.73
2019-03-08T17:44:42.454Z,1.40
2019-03-08T17:47:12.362Z,2.10
2019-03-08T17:49:57.130Z,1.50
2019-03-08T17:52:30.065Z,1.70
2019-03-08T17:55:05.786Z,1.70
2019-03-08T17:57:38.562Z,1.80
2019-03-08T18:00:12.947Z,1.60
2019-03-08T18:02:45.921Z,2.20
2019-03-08T18:05:15.823Z,2.27
2019-03-08T18:07:57.800Z,2.00
2019-03-08T18:10:33.639Z,2.30
2019-03-08T18:13:15.260Z,3.53
2019-03-08T18:15:45.171Z,3.90
2019-03-08T18:18:33.210Z,12.27
2019-03-08T18:21:06.138Z,28.17
2019-03-08T18:23:42.109Z,17.43
2019-03-08T18:26:15.036Z,6.57
2019-03-08T18:28:44.961Z,3.60
2019-03-08T18:31:20.924Z,4.30
2019-03-08T18:33:59.613Z,2.97
2019-03-08T18:36:29.514Z,3.27
2019-03-08T18:39:08.544Z,3.40
2019-03-08T18:41:38.479Z,3.60
2019-03-08T18:44:26.614Z,3.60
2019-03-08T18:47:02.491Z,3.83
2019-03-08T18:49:32.385Z,6.27
2019-03-08T18:52:02.341Z,8.30
2019-03-08T18:54:32.421Z,6.80
2019-03-08T18:57:08.389Z,8.50
2019-03-08T18:59:41.038Z,7.30
2019-03-08T19:02:27.137Z,6.47
2019-03-08T19:05:01.221Z,6.50
2019-03-08T19:07:47.266Z,5.13
2019-03-08T19:10:23.049Z,5.10
2019-03-08T19:12:53.075Z,3.97
2019-03-08T19:15:32.112Z,4.23
2019-03-08T19:18:07.903Z,3.80
2019-03-08T19:20:44.254Z,4.07
2019-03-08T19:23:14.252Z,3.57
2019-03-08T19:25:44.216Z,4.67
2019-03-08T19:28:16.908Z,4.60
2019-03-08T19:31:03.077Z,4.33
2019-03-08T19:33:38.453Z,3.37
2019-03-08T19:36:11.073Z,3.77
2019-03-08T19:38:43.675Z,4.10
2019-03-08T19:41:13.593Z,5.60
2019-03-08T19:43:55.659Z,5.13
2019-03-08T19:46:27.177Z,5.80
2019-03-08T19:49:06.194Z,4.30
2019-03-08T19:51:51.177Z,5.13
2019-03-08T19:54:21.124Z,3.17
2019-03-08T19:56:51.344Z,3.40
2019-03-08T19:59:21.284Z,5.10
2019-03-08T20:01:51.208Z,3.33
2019-03-08T20:04:29.977Z,3.97
2019-03-08T20:06:59.885Z,4.53
2019-03-08T20:09:47.642Z,4.50
2019-03-08T20:12:33.370Z,3.90
2019-03-08T20:15:19.585Z,6.00
2019-03-08T20:17:58.590Z,6.60
2019-03-08T20:20:44.897Z,6.50
2019-03-08T20:23:33.113Z,4.60
2019-03-08T20:26:17.846Z,5.47
2019-03-08T20:28:56.513Z,4.33
2019-03-08T20:31:29.338Z,4.40
2019-03-08T20:34:14.279Z,5.47
2019-03-08T20:36:49.707Z,5.87
2019-03-08T20:39:28.686Z,5.20
2019-03-08T20:42:04.346Z,6.50
2019-03-08T20:44:42.993Z,4.70
2019-03-08T20:47:12.901Z,5.10
2019-03-08T20:49:41.248Z,5.17
2019-03-08T20:52:09.491Z,6.33
2019-03-08T20:54:37.895Z,5.13
2019-03-08T20:57:06.154Z,4.87
2019-03-08T20:59:34.489Z,4.40
2019-03-08T21:02:02.801Z,5.33
2019-03-08T21:04:31.074Z,4.83
2019-03-08T21:06:59.339Z,5.67
2019-03-08T21:09:27.621Z,3.93
2019-03-08T21:11:55.881Z,4.13
2019-03-08T21:14:24.168Z,4.30
2019-03-08T21:16:52.423Z,5.23
2019-03-08T21:19:20.865Z,4.00
2019-03-08T21:21:49.422Z,4.60
2019-03-08T21:24:17.720Z,4.67
2019-03-08T21:26:45.986Z,4.23
2019-03-08T21:29:14.321Z,4.47
2019-03-08T21:31:42.577Z,5.17
2019-03-08T21:34:10.900Z,5.87
2019-03-08T21:36:39.274Z,4.90
2019-03-08T21:39:07.594Z,4.23
2019-03-08T21:41:35.842Z,4.07
2019-03-08T21:44:04.340Z,4.33
2019-03-08T21:46:32.597Z,3.93
2019-03-08T21:49:00.930Z,3.40
2019-03-08T21:51:29.182Z,3.50
2019-03-08T21:53:57.538Z,4.97
2019-03-08T21:56:25.769Z,4.90
2019-03-08T21:58:54.112Z,2.67
2019-03-08T22:01:22.416Z,4.30
2019-03-08T22:03:52.510Z,4.30
2019-03-08T22:06:20.774Z,4.10
2019-03-08T22:09:02.693Z,3.67
2019-03-08T22:11:32.641Z,3.90
2019-03-08T22:14:01.113Z,4.33
2019-03-08T22:16:29.378Z,4.00
2019-03-08T22:18:57.657Z,4.07
2019-03-08T22:21:25.920Z,3.40
2019-03-08T22:23:54.201Z,3.70
2019-03-08T22:26:22.460Z,3.60
2019-03-08T22:28:50.722Z,4.27
2019-03-08T22:31:19.002Z,3.00
2019-03-08T22:33:47.257Z,3.30
2019-03-08T22:36:15.539Z,4.87
2019-03-08T22:38:43.803Z,4.77
2019-03-08T22:41:12.085Z,3.60
2019-03-08T22:43:40.349Z,3.93
2019-03-08T22:46:08.639Z,3.50
2019-03-08T22:48:36.896Z,4.23
2019-03-08T22:51:05.177Z,3.20
2019-03-08T22:53:33.441Z,4.30
2019-03-08T22:56:01.926Z,4.07
2019-03-08T22:58:30.201Z,3.90
2019-03-08T23:01:04.175Z,3.83
2019-03-08T23:03:32.418Z,3.30
2019-03-08T23:06:00.706Z,3.70
2019-03-08T23:08:29.334Z,4.07
2019-03-08T23:10:57.618Z,4.20
2019-03-08T23:13:25.870Z,3.30
2019-03-08T23:15:54.157Z,3.83
2019-03-08T23:18:22.413Z,2.60
2019-03-08T23:20:50.695Z,3.83
2019-03-08T23:23:19.738Z,3.43
2019-03-08T23:25:48.022Z,4.53
2019-03-08T23:28:17.921Z,4.87
2019-03-08T23:30:47.845Z,4.43
2019-03-08T23:33:16.641Z,4.40
2019-03-08T23:35:45.878Z,3.80
2019-03-08T23:38:14.140Z,3.90
2019-03-08T23:40:42.422Z,4.10
2019-03-08T23:43:10.684Z,4.10
2019-03-08T23:45:38.966Z,3.30
2019-03-08T23:48:07.421Z,2.80
2019-03-08T23:50:35.712Z,4.10
2019-03-08T23:53:04.093Z,2.90
2019-03-08T23:55:32.610Z,3.00
2019-03-08T23:58:01.653Z,3.83
